createdAt,value
2019-04-04T00:01:32.683Z,16.95
2019-04-04T00:04:01.240Z,18.00
2019-04-04T00:06:30.196Z,17.02
2019-04-04T00:09:01.688Z,21.20
2019-04-04T00:11:29.015Z,22.15
2019-04-04T00:13:57.873Z,23.75
2019-04-04T00:16:26.782Z,24.82
2019-04-04T00:18:58.484Z,23.73
2019-04-04T00:21:25.659Z,22.85
2019-04-04T00:23:54.292Z,19.98
2019-04-04T00:26:22.940Z,22.93
2019-04-04T00:28:51.575Z,19.23
2019-04-04T00:31:20.167Z,17.65
2019-04-04T00:33:48.832Z,18.12
2019-04-04T00:36:17.461Z,19.50
2019-04-04T00:38:46.027Z,17.62
2019-04-04T00:41:14.643Z,17.98
2019-04-04T00:43:43.220Z,18.57
2019-04-04T00:46:11.851Z,18.07
2019-04-04T00:48:40.435Z,16.82
2019-04-04T00:51:09.097Z,17.17
2019-04-04T00:53:38.068Z,18.02
2019-04-04T00:56:06.609Z,20.85
2019-04-04T00:58:35.197Z,19.50
2019-04-04T01:01:04.225Z,17.82
2019-04-04T01:03:32.794Z,16.93
2019-04-04T01:06:03.504Z,16.90
2019-04-04T01:08:31.595Z,15.95
2019-04-04T01:11:00.550Z,17.17
2019-04-04T01:13:29.193Z,18.52
2019-04-04T01:15:57.779Z,20.35
2019-04-04T01:18:26.346Z,20.88
2019-04-04T01:20:54.946Z,22.27
2019-04-04T01:23:25.182Z,20.97
2019-04-04T01:25:53.808Z,22.42
2019-04-04T01:28:22.351Z,21.35
2019-04-04T01:30:51.015Z,22.05
2019-04-04T01:33:20.072Z,21.35
2019-04-04T01:35:49.463Z,20.95
2019-04-04T01:38:18.037Z,22.45
2019-04-04T01:40:46.940Z,26.95
2019-04-04T01:43:15.482Z,26.07
2019-04-04T01:45:44.939Z,25.75
2019-04-04T01:48:13.577Z,23.07
2019-04-04T01:50:42.228Z,28.47
2019-04-04T01:53:11.205Z,24.65
2019-04-04T01:55:39.797Z,25.82
2019-04-04T01:58:10.137Z,24.95
2019-04-04T02:00:39.046Z,25.48
2019-04-04T02:03:07.608Z,26.25
2019-04-04T02:05:36.275Z,25.02
2019-04-04T02:08:04.991Z,23.73
2019-04-04T02:10:34.847Z,20.77
2019-04-04T02:13:03.918Z,20.48
2019-04-04T02:15:32.586Z,21.93
2019-04-04T02:18:01.164Z,22.60
2019-04-04T02:20:29.749Z,23.22
2019-04-04T02:23:01.223Z,23.47
2019-04-04T02:25:28.603Z,21.35
2019-04-04T02:27:57.175Z,19.50
2019-04-04T02:30:25.792Z,19.48
2019-04-04T02:32:59.472Z,19.05
2019-04-04T02:35:25.287Z,19.60
2019-04-04T02:37:55.541Z,18.20
2019-04-04T02:40:24.307Z,17.70
2019-04-04T02:42:55.162Z,19.00
2019-04-04T02:45:23.591Z,18.40
2019-04-04T02:47:52.186Z,20.35
2019-04-04T02:50:20.826Z,20.70
2019-04-04T02:52:49.423Z,19.90
2019-04-04T02:55:17.989Z,21.33
2019-04-04T02:57:46.562Z,21.10
2019-04-04T03:00:16.482Z,20.90
2019-04-04T03:02:45.197Z,25.77
2019-04-04T03:05:13.919Z,22.35
2019-04-04T03:07:42.548Z,26.00
2019-04-04T03:10:15.364Z,27.52
2019-04-04T03:12:41.988Z,29.12
2019-04-04T03:15:11.185Z,27.55
2019-04-04T03:17:39.767Z,25.65
2019-04-04T03:20:09.507Z,26.80
2019-04-04T03:22:38.127Z,26.65
2019-04-04T03:25:07.154Z,26.02
2019-04-04T03:27:35.858Z,28.87
2019-04-04T03:30:13.665Z,28.98
2019-04-04T03:32:37.351Z,26.60
2019-04-04T03:35:07.148Z,32.03
2019-04-04T03:37:40.614Z,31.80
2019-04-04T03:40:07.008Z,30.00
2019-04-04T03:42:35.920Z,31.17
2019-04-04T03:45:05.917Z,30.95
2019-04-04T03:47:34.494Z,28.92
2019-04-04T03:50:03.318Z,27.77
2019-04-04T03:52:31.865Z,28.20
2019-04-04T03:55:00.459Z,31.90
2019-04-04T03:57:29.051Z,35.38
2019-04-04T03:59:57.655Z,38.50
2019-04-04T04:02:26.208Z,38.42
2019-04-04T04:04:55.106Z,36.08
2019-04-04T04:07:23.678Z,32.53
2019-04-04T04:09:52.283Z,40.08
2019-04-04T04:12:20.928Z,39.80
2019-04-04T04:14:53.701Z,37.98
2019-04-04T04:17:20.095Z,36.50
2019-04-04T04:19:48.680Z,35.73
2019-04-04T04:22:19.297Z,33.95
2019-04-04T04:24:47.494Z,36.05
2019-04-04T04:27:16.096Z,36.10
2019-04-04T04:29:44.691Z,31.25
2019-04-04T04:32:13.238Z,33.30
2019-04-04T04:34:41.838Z,34.33
2019-04-04T04:37:10.505Z,35.63
2019-04-04T04:39:41.455Z,34.53
2019-04-04T04:42:09.389Z,36.35
2019-04-04T04:44:38.948Z,42.10
2019-04-04T04:47:07.805Z,43.73
2019-04-04T04:49:36.557Z,41.10
2019-04-04T04:52:05.171Z,40.10
2019-04-04T04:54:33.768Z,35.85
2019-04-04T04:57:03.898Z,40.10
2019-04-04T04:59:32.554Z,40.43
2019-04-04T05:02:01.113Z,38.05
2019-04-04T05:04:29.706Z,37.75
2019-04-04T05:06:58.271Z,35.17
2019-04-04T05:09:26.830Z,35.95
2019-04-04T05:11:55.441Z,36.53
2019-04-04T05:14:24.026Z,38.10
2019-04-04T05:16:52.629Z,35.80
2019-04-04T05:19:21.314Z,33.45
2019-04-04T05:21:49.972Z,35.40
2019-04-04T05:24:18.788Z,38.92
2019-04-04T05:26:47.511Z,40.08
2019-04-04T05:29:16.432Z,39.15
2019-04-04T05:31:45.007Z,37.98
2019-04-04T05:34:13.553Z,43.78
2019-04-04T05:36:42.155Z,39.20
2019-04-04T05:39:10.858Z,37.05
2019-04-04T05:41:39.488Z,41.02
2019-04-04T05:44:09.962Z,41.33
2019-04-04T05:46:38.399Z,44.20
2019-04-04T05:49:08.289Z,47.38
2019-04-04T05:51:37.098Z,50.80
2019-04-04T05:54:07.540Z,48.28
2019-04-04T05:56:36.112Z,47.73
2019-04-04T05:59:05.044Z,43.52
2019-04-04T06:01:35.307Z,47.60
2019-04-04T06:04:04.290Z,50.83
2019-04-04T06:06:34.061Z,48.80
2019-04-04T06:09:04.689Z,53.05
2019-04-04T06:11:33.247Z,50.70
2019-04-04T06:14:01.891Z,54.05
2019-04-04T06:16:30.468Z,56.68
2019-04-04T06:18:59.118Z,51.90
2019-04-04T06:21:28.022Z,52.20
2019-04-04T06:23:56.693Z,50.78
2019-04-04T06:26:25.627Z,55.05
2019-04-04T06:28:54.284Z,53.17
2019-04-04T06:31:26.196Z,57.90
2019-04-04T06:33:53.102Z,58.28
2019-04-04T06:36:21.675Z,60.23
2019-04-04T06:38:52.176Z,59.05
2019-04-04T06:41:20.663Z,56.77
2019-04-04T06:43:49.757Z,55.60
2019-04-04T06:46:22.409Z,54.35
2019-04-04T06:48:48.694Z,46.08
2019-04-04T06:51:17.278Z,50.43
2019-04-04T06:53:47.087Z,48.28
2019-04-04T06:56:15.879Z,52.35
2019-04-04T06:58:44.461Z,54.42
2019-04-04T07:01:13.016Z,53.15
2019-04-04T07:03:42.953Z,54.98
2019-04-04T07:06:12.018Z,52.25
2019-04-04T07:08:40.572Z,47.08
2019-04-04T07:11:20.949Z,42.70
2019-04-04T07:13:42.647Z,43.10
2019-04-04T07:16:10.044Z,42.98
2019-04-04T07:18:38.630Z,41.05
2019-04-04T07:21:07.216Z,35.08
2019-04-04T07:23:35.764Z,31.35
2019-04-04T07:26:05.617Z,31.02
2019-04-04T07:28:34.185Z,30.43
2019-04-04T07:31:02.831Z,27.50
2019-04-04T07:33:31.418Z,27.15
2019-04-04T07:35:59.989Z,25.20
2019-04-04T07:38:28.766Z,24.75
2019-04-04T07:40:58.135Z,24.32
2019-04-04T07:43:26.848Z,22.90
2019-04-04T07:45:59.731Z,22.75
2019-04-04T07:48:28.374Z,24.90
2019-04-04T07:50:58.197Z,23.42
2019-04-04T07:53:28.212Z,22.60
2019-04-04T07:55:56.607Z,20.97
2019-04-04T07:58:25.230Z,19.45
2019-04-04T08:00:53.815Z,19.50
2019-04-04T08:03:22.384Z,19.90
2019-04-04T08:05:50.957Z,19.45
2019-04-04T08:08:19.638Z,19.48
2019-04-04T08:10:48.280Z,18.65
2019-04-04T08:13:16.918Z,18.73
2019-04-04T08:15:45.690Z,18.27
2019-04-04T08:18:14.316Z,18.35
2019-04-04T08:20:43.726Z,17.42
2019-04-04T08:23:12.364Z,19.02
2019-04-04T08:25:41.019Z,16.95
2019-04-04T08:28:09.586Z,16.05
2019-04-04T08:30:38.243Z,16.45
2019-04-04T08:33:06.881Z,16.15
2019-04-04T08:35:35.554Z,14.95
2019-04-04T08:38:04.178Z,14.25
2019-04-04T08:40:32.778Z,11.95
2019-04-04T08:43:01.340Z,13.80
2019-04-04T08:45:30.462Z,13.10
2019-04-04T08:47:59.030Z,12.40
2019-04-04T08:50:27.767Z,11.60
2019-04-04T08:52:56.333Z,10.32
2019-04-04T08:55:24.943Z,12.73
2019-04-04T08:57:53.579Z,11.28
2019-04-04T09:03:01.085Z,10.60
2019-04-04T09:05:29.711Z,9.00
2019-04-04T09:07:58.300Z,10.00
2019-04-04T09:10:26.945Z,9.47
2019-04-04T09:12:55.596Z,9.23
2019-04-04T09:15:24.159Z,8.50
2019-04-04T09:17:52.732Z,7.33
2019-04-04T09:20:21.359Z,7.60
2019-04-04T09:22:49.939Z,7.70
2019-04-04T09:25:18.793Z,8.47
2019-04-04T09:27:47.439Z,7.40
2019-04-04T09:30:16.657Z,8.63
2019-04-04T09:32:45.269Z,7.63
2019-04-04T09:35:14.411Z,8.10
2019-04-04T09:37:42.971Z,7.73
2019-04-04T09:40:12.332Z,6.57
2019-04-04T09:42:40.956Z,6.60
2019-04-04T09:45:10.673Z,6.30
2019-04-04T09:47:39.319Z,4.57
2019-04-04T09:50:09.061Z,4.20
2019-04-04T09:52:37.636Z,5.60
2019-04-04T09:55:09.682Z,5.30
2019-04-04T09:57:38.371Z,5.00
2019-04-04T10:00:12.855Z,4.20
2019-04-04T10:02:41.570Z,4.70
2019-04-04T10:05:10.727Z,5.00
2019-04-04T10:07:39.428Z,3.97
2019-04-04T10:10:09.120Z,3.50
2019-04-04T10:12:38.147Z,3.43
2019-04-04T10:15:07.446Z,3.50
2019-04-04T10:17:36.180Z,3.90
2019-04-04T10:20:06.543Z,3.97
2019-04-04T10:22:35.273Z,4.37
2019-04-04T10:25:04.657Z,3.80
2019-04-04T10:27:33.240Z,3.37
2019-04-04T10:30:01.796Z,4.10
2019-04-04T10:32:30.470Z,3.60
2019-04-04T10:34:59.044Z,3.03
2019-04-04T10:37:27.630Z,3.90
2019-04-04T10:39:56.195Z,3.20
2019-04-04T10:42:24.780Z,3.33
2019-04-04T10:44:53.795Z,2.70
2019-04-04T10:47:22.445Z,3.30
2019-04-04T10:49:52.609Z,3.50
2019-04-04T10:52:21.165Z,3.20
2019-04-04T10:54:49.817Z,4.50
2019-04-04T10:57:18.498Z,3.97
2019-04-04T10:59:47.056Z,3.53
2019-04-04T11:02:15.700Z,3.77
2019-04-04T11:04:44.308Z,3.57
2019-04-04T11:07:12.856Z,3.87
2019-04-04T11:09:42.434Z,3.70
2019-04-04T11:12:11.228Z,3.50
2019-04-04T11:14:39.775Z,3.43
2019-04-04T11:17:08.361Z,3.67
2019-04-04T11:19:36.929Z,3.90
2019-04-04T11:22:05.661Z,3.27
2019-04-04T11:24:34.220Z,4.20
2019-04-04T11:27:02.930Z,4.73
2019-04-04T11:29:31.476Z,4.67
2019-04-04T11:32:00.116Z,3.80
2019-04-04T11:34:28.709Z,4.00
2019-04-04T11:36:57.615Z,4.27
2019-04-04T11:39:26.350Z,3.23
2019-04-04T11:41:54.914Z,2.80
2019-04-04T11:44:23.893Z,3.30
2019-04-04T11:46:52.489Z,3.37
2019-04-04T11:49:21.125Z,3.90
2019-04-04T11:51:49.782Z,3.70
2019-04-04T11:54:18.655Z,3.80
2019-04-04T11:56:47.237Z,3.57
2019-04-04T11:59:15.806Z,3.67
2019-04-04T12:01:46.022Z,3.07
2019-04-04T12:04:14.586Z,3.60
2019-04-04T12:06:43.210Z,3.57
2019-04-04T12:09:11.863Z,3.37
2019-04-04T12:11:40.411Z,3.63
2019-04-04T12:14:09.081Z,3.30
2019-04-04T12:16:37.660Z,3.60
2019-04-04T12:19:06.571Z,3.70
2019-04-04T12:21:35.450Z,3.60
2019-04-04T12:24:04.077Z,3.30
2019-04-04T12:26:32.676Z,3.17
2019-04-04T12:29:01.654Z,3.70
2019-04-04T12:31:30.221Z,3.50
2019-04-04T12:33:58.783Z,3.30
2019-04-04T12:36:27.361Z,2.97
2019-04-04T12:38:55.939Z,3.73
2019-04-04T12:41:24.526Z,9.60
2019-04-04T12:43:53.177Z,5.83
2019-04-04T12:46:21.748Z,4.37
2019-04-04T12:48:50.394Z,3.77
2019-04-04T12:51:19.329Z,3.50
2019-04-04T12:53:47.906Z,3.63
2019-04-04T12:56:16.493Z,3.90
2019-04-04T12:58:45.068Z,3.60
2019-04-04T13:01:13.783Z,3.43
2019-04-04T13:03:42.361Z,3.53
2019-04-04T13:06:10.923Z,4.10
2019-04-04T13:08:39.582Z,4.07
2019-04-04T13:11:08.559Z,3.60
2019-04-04T13:13:38.311Z,4.40
2019-04-04T13:16:07.033Z,4.20
2019-04-04T13:18:35.944Z,3.97
2019-04-04T13:21:04.640Z,3.60
2019-04-04T13:23:33.218Z,3.63
2019-04-04T13:26:01.806Z,3.40
2019-04-04T13:28:30.351Z,4.17
2019-04-04T13:30:58.991Z,4.07
2019-04-04T13:33:27.561Z,3.80
2019-04-04T13:35:56.121Z,3.87
2019-04-04T13:38:24.777Z,3.80
2019-04-04T13:40:53.399Z,4.27
2019-04-04T13:43:22.537Z,3.57
2019-04-04T13:45:51.706Z,3.30
2019-04-04T13:48:20.358Z,3.90
2019-04-04T13:50:48.920Z,3.60
2019-04-04T13:53:17.495Z,3.50
2019-04-04T13:55:47.230Z,3.67
2019-04-04T13:58:17.533Z,3.43
2019-04-04T14:00:46.007Z,3.97
2019-04-04T14:03:14.618Z,3.67
2019-04-04T14:05:43.234Z,3.00
2019-04-04T14:08:14.314Z,3.40
2019-04-04T14:10:42.029Z,2.87
2019-04-04T14:13:12.040Z,2.83
2019-04-04T14:15:41.452Z,2.90
2019-04-04T14:18:22.162Z,3.30
2019-04-04T14:21:02.981Z,2.30
2019-04-04T14:23:23.423Z,2.60
2019-04-04T14:25:52.222Z,2.80
2019-04-04T14:28:21.359Z,2.40
2019-04-04T14:30:50.481Z,2.77
2019-04-04T14:33:19.343Z,2.97
2019-04-04T14:35:47.960Z,2.43
2019-04-04T14:38:16.568Z,2.60
2019-04-04T14:40:45.110Z,2.20
2019-04-04T14:43:13.758Z,2.87
2019-04-04T14:45:42.336Z,2.53
2019-04-04T14:48:11.606Z,2.67
2019-04-04T14:50:40.321Z,2.70
2019-04-04T14:53:08.909Z,2.70
2019-04-04T14:55:37.528Z,2.90
2019-04-04T14:58:06.328Z,3.13
2019-04-04T15:00:35.036Z,2.93
2019-04-04T15:03:03.682Z,3.73
2019-04-04T15:05:32.348Z,3.67
2019-04-04T15:08:01.207Z,2.63
2019-04-04T15:10:29.798Z,3.20
2019-04-04T15:12:58.448Z,2.60
2019-04-04T15:15:27.030Z,4.73
2019-04-04T15:17:57.153Z,4.37
2019-04-04T15:20:25.841Z,2.83
2019-04-04T15:22:55.005Z,3.47
2019-04-04T15:25:23.607Z,3.23
2019-04-04T15:27:52.231Z,3.13
2019-04-04T15:30:20.885Z,3.23
2019-04-04T15:32:49.909Z,3.30
2019-04-04T15:35:18.490Z,3.50
2019-04-04T15:37:47.077Z,3.50
2019-04-04T15:40:15.884Z,3.70
2019-04-04T15:42:44.495Z,3.17
2019-04-04T15:45:13.402Z,2.90
2019-04-04T15:47:42.036Z,2.63
2019-04-04T15:50:11.137Z,3.13
2019-04-04T15:52:39.845Z,2.47
2019-04-04T15:55:08.679Z,2.80
2019-04-04T15:57:37.710Z,2.80
2019-04-04T16:00:08.370Z,2.73
2019-04-04T16:02:37.470Z,3.03
2019-04-04T16:05:08.292Z,3.00
2019-04-04T16:07:37.016Z,2.60
2019-04-04T16:10:07.146Z,2.53
2019-04-04T16:12:35.846Z,2.90
2019-04-04T16:15:06.557Z,2.90
2019-04-04T16:17:35.051Z,2.40
2019-04-04T16:20:05.814Z,2.90
2019-04-04T16:22:34.407Z,2.63
2019-04-04T16:25:02.965Z,3.20
2019-04-04T16:27:31.545Z,3.00
2019-04-04T16:30:00.192Z,2.80
2019-04-04T16:32:29.223Z,2.80
2019-04-04T16:34:57.764Z,2.70
2019-04-04T16:37:26.882Z,2.77
2019-04-04T16:40:07.915Z,2.83
2019-04-04T16:42:25.699Z,2.90
2019-04-04T16:44:54.261Z,3.60
2019-04-04T16:47:22.847Z,3.33
2019-04-04T16:49:51.559Z,3.20
2019-04-04T16:52:20.071Z,3.47
2019-04-04T16:54:48.785Z,4.00
2019-04-04T16:57:17.369Z,3.73
2019-04-04T16:59:45.972Z,3.40
2019-04-04T17:02:14.572Z,3.50
2019-04-04T17:04:43.139Z,3.43
2019-04-04T17:07:11.818Z,3.53
2019-04-04T17:09:40.383Z,3.97
2019-04-04T17:12:14.715Z,3.43
2019-04-04T17:14:39.765Z,3.50
2019-04-04T17:17:08.415Z,3.53
2019-04-04T17:19:37.003Z,4.03
2019-04-04T17:22:08.256Z,4.00
2019-04-04T17:24:36.891Z,3.70
2019-04-04T17:27:06.010Z,3.90
2019-04-04T17:29:34.661Z,4.10
2019-04-04T17:32:03.370Z,3.80
2019-04-04T17:34:32.284Z,3.73
2019-04-04T17:37:01.410Z,4.13
2019-04-04T17:39:30.048Z,3.90
2019-04-04T17:41:58.734Z,3.80
2019-04-04T17:44:27.314Z,4.53
2019-04-04T17:46:56.257Z,4.63
2019-04-04T17:49:25.065Z,4.10
2019-04-04T17:51:53.805Z,3.77
2019-04-04T17:54:22.514Z,4.30
2019-04-04T17:56:51.369Z,4.03
2019-04-04T17:59:19.938Z,4.27
2019-04-04T18:01:48.902Z,4.53
2019-04-04T18:04:17.540Z,4.30
2019-04-04T18:06:46.166Z,4.87
2019-04-04T18:09:14.817Z,5.20
2019-04-04T18:11:43.383Z,5.13
2019-04-04T18:14:11.965Z,5.20
2019-04-04T18:16:40.601Z,4.93
2019-04-04T18:19:09.249Z,4.97
2019-04-04T18:21:38.250Z,4.53
2019-04-04T18:24:06.933Z,5.10
2019-04-04T18:26:35.527Z,5.53
2019-04-04T18:29:04.484Z,4.87
2019-04-04T18:31:33.080Z,4.83
2019-04-04T18:34:02.046Z,4.67
2019-04-04T18:36:31.125Z,4.93
2019-04-04T18:39:00.087Z,5.20
2019-04-04T18:41:28.649Z,5.27
2019-04-04T18:43:57.447Z,5.23
2019-04-04T18:46:26.053Z,5.23
2019-04-04T18:48:54.784Z,5.83
2019-04-04T18:51:23.354Z,5.67
2019-04-04T18:53:52.038Z,5.73
2019-04-04T18:56:20.600Z,5.73
2019-04-04T18:58:49.264Z,6.00
2019-04-04T19:01:17.830Z,6.13
2019-04-04T19:03:46.422Z,6.90
2019-04-04T19:06:15.005Z,6.90
2019-04-04T19:08:43.641Z,7.10
2019-04-04T19:11:12.747Z,6.93
2019-04-04T19:13:44.561Z,6.80
2019-04-04T19:16:11.866Z,7.03
2019-04-04T19:18:40.529Z,6.50
2019-04-04T19:21:09.258Z,6.50
2019-04-04T19:23:48.501Z,7.40
2019-04-04T19:26:08.640Z,6.87
2019-04-04T19:28:37.216Z,7.30
2019-04-04T19:31:06.354Z,6.93
2019-04-04T19:33:34.979Z,6.80
2019-04-04T19:36:03.677Z,6.77
2019-04-04T19:38:32.335Z,7.47
2019-04-04T19:41:00.999Z,8.03
2019-04-04T19:43:29.639Z,8.13
2019-04-04T19:45:58.214Z,7.90
2019-04-04T19:48:26.838Z,8.27
2019-04-04T19:50:55.549Z,7.67
2019-04-04T19:53:24.557Z,7.37
2019-04-04T19:55:53.153Z,8.17
2019-04-04T19:58:21.794Z,9.13
2019-04-04T20:00:50.641Z,8.83
2019-04-04T20:03:19.349Z,9.40
2019-04-04T20:05:47.928Z,8.83
2019-04-04T20:08:16.543Z,9.37
2019-04-04T20:10:45.114Z,9.63
2019-04-04T20:13:13.674Z,9.47
2019-04-04T20:15:42.281Z,8.60
2019-04-04T20:18:10.872Z,9.73
2019-04-04T20:20:39.531Z,9.67
2019-04-04T20:23:08.198Z,9.73
2019-04-04T20:25:36.782Z,9.60
2019-04-04T20:28:05.494Z,9.63
2019-04-04T20:30:38.903Z,10.17
2019-04-04T20:33:09.211Z,10.77
2019-04-04T20:35:38.002Z,10.60
2019-04-04T20:38:06.716Z,12.53
2019-04-04T20:40:35.363Z,12.73
2019-04-04T20:43:03.988Z,11.27
2019-04-04T20:45:32.654Z,10.23
2019-04-04T20:48:01.375Z,10.03
2019-04-04T20:50:29.948Z,10.47
2019-04-04T20:52:58.522Z,10.27
2019-04-04T20:55:27.460Z,10.27
2019-04-04T20:57:56.115Z,10.57
2019-04-04T21:00:24.843Z,10.03
2019-04-04T21:02:53.442Z,10.43
2019-04-04T21:05:22.094Z,11.17
2019-04-04T21:07:50.672Z,10.70
2019-04-04T21:10:19.410Z,11.03
2019-04-04T21:12:47.982Z,10.60
2019-04-04T21:15:16.704Z,10.90
2019-04-04T21:17:45.354Z,11.73
2019-04-04T21:20:14.013Z,11.87
2019-04-04T21:22:42.656Z,12.30
2019-04-04T21:25:11.712Z,11.80
2019-04-04T21:27:40.364Z,12.57
2019-04-04T21:30:09.061Z,12.17
2019-04-04T21:32:37.727Z,11.87
2019-04-04T21:35:06.917Z,12.57
2019-04-04T21:37:35.523Z,12.20
2019-04-04T21:40:05.728Z,11.63
2019-04-04T21:42:35.175Z,12.98
2019-04-04T21:45:05.381Z,13.10
2019-04-04T21:47:34.054Z,12.57
2019-04-04T21:50:02.611Z,13.00
2019-04-04T21:52:31.135Z,14.33
2019-04-04T21:54:59.728Z,13.13
2019-04-04T21:57:28.323Z,13.17
2019-04-04T21:59:57.081Z,12.82
2019-04-04T22:02:25.900Z,12.85
2019-04-04T22:04:54.520Z,13.25
2019-04-04T22:07:23.303Z,13.50
2019-04-04T22:09:51.929Z,13.73
2019-04-04T22:12:20.615Z,12.87
2019-04-04T22:14:49.279Z,13.93
2019-04-04T22:17:17.999Z,12.93
2019-04-04T22:19:47.051Z,14.87
2019-04-04T22:22:16.060Z,13.40
2019-04-04T22:24:44.688Z,12.80
2019-04-04T22:27:13.346Z,13.53
2019-04-04T22:29:42.044Z,13.95
2019-04-04T22:32:10.702Z,13.62
2019-04-04T22:34:39.801Z,13.60
2019-04-04T22:37:08.525Z,14.13
2019-04-04T22:39:37.257Z,13.03
2019-04-04T22:42:05.929Z,14.13
2019-04-04T22:44:36.418Z,14.30
2019-04-04T22:47:05.132Z,14.13
2019-04-04T22:49:33.755Z,14.75
2019-04-04T22:52:02.486Z,14.70
2019-04-04T22:54:31.472Z,14.05
2019-04-04T22:57:00.588Z,13.58
2019-04-04T22:59:29.770Z,14.55
2019-04-04T23:01:58.694Z,14.23
2019-04-04T23:04:27.521Z,14.20
2019-04-04T23:06:56.381Z,13.83
2019-04-04T23:09:25.215Z,15.35
2019-04-04T23:11:54.103Z,15.23
2019-04-04T23:14:23.237Z,14.98
2019-04-04T23:16:52.118Z,14.45
2019-04-04T23:19:20.969Z,14.43
2019-04-04T23:21:49.790Z,15.05
2019-04-04T23:24:18.674Z,15.68
2019-04-04T23:26:47.542Z,14.65
2019-04-04T23:29:16.373Z,15.23
2019-04-04T23:31:45.214Z,15.38
2019-04-04T23:34:14.060Z,15.93
2019-04-04T23:36:43.285Z,14.98
2019-04-04T23:39:12.172Z,15.85
2019-04-04T23:41:41.093Z,15.40
2019-04-04T23:44:09.957Z,14.78
2019-04-04T23:46:38.794Z,15.18
2019-04-04T23:49:07.650Z,15.43
2019-04-04T23:51:36.488Z,15.28
2019-04-04T23:54:05.531Z,15.83
2019-04-04T23:56:34.385Z,14.98
2019-04-04T23:59:03.258Z,14.68
